sensor_id;sensor_type;location;lat;lon;timestamp;P1;durP1;ratioP1;P2;durP2;ratioP2
13580;SDS011;6861;46.170;7.222;2023-07-28T00:00:39;2.67;;;1.88;;
13580;SDS011;6861;46.170;7.222;2023-07-28T00:03:08;3.10;;;1.83;;
13580;SDS011;6861;46.170;7.222;2023-07-28T00:05:37;5.28;;;2.13;;
13580;SDS011;6861;46.170;7.222;2023-07-28T00:08:05;2.63;;;2.10;;
13580;SDS011;6861;46.170;7.222;2023-07-28T00:10:35;2.60;;;1.92;;
13580;SDS011;6861;46.170;7.222;2023-07-28T00:13:07;3.33;;;1.83;;
13580;SDS011;6861;46.170;7.222;2023-07-28T00:15:36;2.55;;;1.85;;
13580;SDS011;6861;46.170;7.222;2023-07-28T00:18:04;3.67;;;1.92;;
13580;SDS011;6861;46.170;7.222;2023-07-28T00:20:32;3.30;;;1.98;;
13580;SDS011;6861;46.170;7.222;2023-07-28T00:23:01;3.83;;;1.73;;
13580;SDS011;6861;46.170;7.222;2023-07-28T00:25:29;2.30;;;1.80;;
13580;SDS011;6861;46.170;7.222;2023-07-28T00:27:59;3.88;;;2.00;;
13580;SDS011;6861;46.170;7.222;2023-07-28T00:30:27;3.08;;;2.10;;
13580;SDS011;6861;46.170;7.222;2023-07-28T00:32:55;2.25;;;1.80;;
13580;SDS011;6861;46.170;7.222;2023-07-28T00:35:23;3.30;;;2.10;;
13580;SDS011;6861;46.170;7.222;2023-07-28T00:37:52;4.28;;;1.90;;
13580;SDS011;6861;46.170;7.222;2023-07-28T00:40:21;2.22;;;1.80;;
13580;SDS011;6861;46.170;7.222;2023-07-28T00:42:49;6.85;;;2.28;;
13580;SDS011;6861;46.170;7.222;2023-07-28T00:45:19;2.25;;;1.60;;
13580;SDS011;6861;46.170;7.222;2023-07-28T00:47:48;3.50;;;1.80;;
13580;SDS011;6861;46.170;7.222;2023-07-28T00:50:16;2.97;;;1.88;;
13580;SDS011;6861;46.170;7.222;2023-07-28T00:52:45;2.58;;;2.00;;
13580;SDS011;6861;46.170;7.222;2023-07-28T00:55:15;3.05;;;1.92;;
13580;SDS011;6861;46.170;7.222;2023-07-28T00:57:44;2.65;;;1.85;;
13580;SDS011;6861;46.170;7.222;2023-07-28T01:00:12;3.85;;;1.98;;
13580;SDS011;6861;46.170;7.222;2023-07-28T01:02:42;2.47;;;1.77;;
13580;SDS011;6861;46.170;7.222;2023-07-28T01:05:11;2.70;;;1.90;;
13580;SDS011;6861;46.170;7.222;2023-07-28T01:07:41;2.65;;;1.95;;
13580;SDS011;6861;46.170;7.222;2023-07-28T01:10:15;2.97;;;1.85;;
13580;SDS011;6861;46.170;7.222;2023-07-28T01:12:46;2.83;;;1.80;;
13580;SDS011;6861;46.170;7.222;2023-07-28T01:15:14;4.65;;;1.83;;
13580;SDS011;6861;46.170;7.222;2023-07-28T01:17:44;3.15;;;2.10;;
13580;SDS011;6861;46.170;7.222;2023-07-28T01:20:12;3.38;;;1.83;;
13580;SDS011;6861;46.170;7.222;2023-07-28T01:22:48;3.28;;;1.90;;
13580;SDS011;6861;46.170;7.222;2023-07-28T01:25:36;3.03;;;1.90;;
13580;SDS011;6861;46.170;7.222;2023-07-28T01:28:17;3.40;;;1.90;;
13580;SDS011;6861;46.170;7.222;2023-07-28T01:30:45;4.07;;;1.88;;
13580;SDS011;6861;46.170;7.222;2023-07-28T01:33:14;3.10;;;2.00;;
13580;SDS011;6861;46.170;7.222;2023-07-28T01:35:42;4.53;;;1.92;;
13580;SDS011;6861;46.170;7.222;2023-07-28T01:38:10;3.60;;;1.88;;
13580;SDS011;6861;46.170;7.222;2023-07-28T01:40:39;3.80;;;2.00;;
13580;SDS011;6861;46.170;7.222;2023-07-28T01:43:07;3.30;;;1.88;;
13580;SDS011;6861;46.170;7.222;2023-07-28T01:45:37;2.60;;;1.98;;
13580;SDS011;6861;46.170;7.222;2023-07-28T01:48:06;3.40;;;1.83;;
13580;SDS011;6861;46.170;7.222;2023-07-28T01:50:35;2.33;;;1.80;;
13580;SDS011;6861;46.170;7.222;2023-07-28T01:53:04;3.88;;;1.73;;
13580;SDS011;6861;46.170;7.222;2023-07-28T01:55:33;3.83;;;1.90;;
13580;SDS011;6861;46.170;7.222;2023-07-28T01:58:01;3.80;;;1.77;;
13580;SDS011;6861;46.170;7.222;2023-07-28T02:00:30;2.80;;;1.75;;
13580;SDS011;6861;46.170;7.222;2023-07-28T02:02:59;3.15;;;2.08;;
13580;SDS011;6861;46.170;7.222;2023-07-28T02:05:30;4.97;;;2.15;;
13580;SDS011;6861;46.170;7.222;2023-07-28T02:07:58;3.13;;;2.00;;
13580;SDS011;6861;46.170;7.222;2023-07-28T02:10:27;6.25;;;2.17;;
13580;SDS011;6861;46.170;7.222;2023-07-28T02:12:56;2.70;;;2.15;;
13580;SDS011;6861;46.170;7.222;2023-07-28T02:15:24;2.30;;;1.65;;
13580;SDS011;6861;46.170;7.222;2023-07-28T02:17:53;3.20;;;2.05;;
13580;SDS011;6861;46.170;7.222;2023-07-28T02:20:22;3.80;;;2.03;;
13580;SDS011;6861;46.170;7.222;2023-07-28T02:22:50;3.85;;;2.28;;
13580;SDS011;6861;46.170;7.222;2023-07-28T02:25:19;1.95;;;1.75;;
13580;SDS011;6861;46.170;7.222;2023-07-28T02:27:47;4.63;;;2.03;;
13580;SDS011;6861;46.170;7.222;2023-07-28T02:30:15;3.65;;;2.30;;
13580;SDS011;6861;46.170;7.222;2023-07-28T02:32:43;3.10;;;2.03;;
13580;SDS011;6861;46.170;7.222;2023-07-28T02:35:12;2.95;;;2.10;;
13580;SDS011;6861;46.170;7.222;2023-07-28T02:37:41;2.63;;;1.73;;
13580;SDS011;6861;46.170;7.222;2023-07-28T02:40:10;2.92;;;1.95;;
13580;SDS011;6861;46.170;7.222;2023-07-28T02:42:39;2.88;;;1.98;;
13580;SDS011;6861;46.170;7.222;2023-07-28T02:45:07;6.07;;;2.00;;
13580;SDS011;6861;46.170;7.222;2023-07-28T02:47:37;2.92;;;2.28;;
13580;SDS011;6861;46.170;7.222;2023-07-28T02:50:05;5.78;;;2.00;;
13580;SDS011;6861;46.170;7.222;2023-07-28T02:52:34;2.88;;;2.10;;
13580;SDS011;6861;46.170;7.222;2023-07-28T02:55:04;3.85;;;2.25;;
13580;SDS011;6861;46.170;7.222;2023-07-28T02:57:32;4.75;;;2.08;;
13580;SDS011;6861;46.170;7.222;2023-07-28T03:00:00;4.28;;;2.00;;
13580;SDS011;6861;46.170;7.222;2023-07-28T03:02:31;2.42;;;1.77;;
13580;SDS011;6861;46.170;7.222;2023-07-28T03:04:59;3.47;;;2.00;;
13580;SDS011;6861;46.170;7.222;2023-07-28T03:07:27;5.80;;;2.35;;
13580;SDS011;6861;46.170;7.222;2023-07-28T03:09:56;3.40;;;2.33;;
13580;SDS011;6861;46.170;7.222;2023-07-28T03:12:26;3.63;;;2.30;;
13580;SDS011;6861;46.170;7.222;2023-07-28T03:14:55;3.42;;;2.20;;
13580;SDS011;6861;46.170;7.222;2023-07-28T03:17:23;2.30;;;2.00;;
13580;SDS011;6861;46.170;7.222;2023-07-28T03:19:51;5.28;;;2.33;;
13580;SDS011;6861;46.170;7.222;2023-07-28T03:22:20;2.90;;;2.15;;
13580;SDS011;6861;46.170;7.222;2023-07-28T03:24:48;3.28;;;2.30;;
13580;SDS011;6861;46.170;7.222;2023-07-28T03:27:16;3.08;;;1.85;;
13580;SDS011;6861;46.170;7.222;2023-07-28T03:29:46;2.83;;;2.10;;
13580;SDS011;6861;46.170;7.222;2023-07-28T03:32:14;3.72;;;1.90;;
13580;SDS011;6861;46.170;7.222;2023-07-28T03:34:42;4.40;;;2.10;;
13580;SDS011;6861;46.170;7.222;2023-07-28T03:37:10;3.47;;;2.00;;
13580;SDS011;6861;46.170;7.222;2023-07-28T03:39:39;4.43;;;2.10;;
13580;SDS011;6861;46.170;7.222;2023-07-28T03:42:07;3.25;;;1.80;;
13580;SDS011;6861;46.170;7.222;2023-07-28T03:44:35;2.88;;;1.75;;
13580;SDS011;6861;46.170;7.222;2023-07-28T03:47:06;5.85;;;2.22;;
13580;SDS011;6861;46.170;7.222;2023-07-28T03:49:34;5.82;;;2.28;;
13580;SDS011;6861;46.170;7.222;2023-07-28T03:52:02;6.13;;;2.63;;
13580;SDS011;6861;46.170;7.222;2023-07-28T03:54:30;3.85;;;2.20;;
13580;SDS011;6861;46.170;7.222;2023-07-28T03:56:59;3.40;;;2.42;;
13580;SDS011;6861;46.170;7.222;2023-07-28T03:59:27;4.32;;;2.53;;
13580;SDS011;6861;46.170;7.222;2023-07-28T04:01:55;4.53;;;2.08;;
13580;SDS011;6861;46.170;7.222;2023-07-28T04:04:25;3.67;;;2.70;;
13580;SDS011;6861;46.170;7.222;2023-07-28T04:06:53;6.30;;;2.30;;
13580;SDS011;6861;46.170;7.222;2023-07-28T04:09:21;3.88;;;2.20;;
13580;SDS011;6861;46.170;7.222;2023-07-28T04:11:49;5.22;;;2.20;;
13580;SDS011;6861;46.170;7.222;2023-07-28T04:14:18;3.10;;;2.22;;
13580;SDS011;6861;46.170;7.222;2023-07-28T04:16:46;3.83;;;2.10;;
13580;SDS011;6861;46.170;7.222;2023-07-28T04:19:14;4.85;;;2.03;;
13580;SDS011;6861;46.170;7.222;2023-07-28T04:21:44;3.55;;;2.13;;
13580;SDS011;6861;46.170;7.222;2023-07-28T04:24:12;2.22;;;2.03;;
13580;SDS011;6861;46.170;7.222;2023-07-28T04:26:40;4.05;;;2.30;;
13580;SDS011;6861;46.170;7.222;2023-07-28T04:29:09;4.35;;;2.15;;
13580;SDS011;6861;46.170;7.222;2023-07-28T04:31:37;3.58;;;1.90;;
13580;SDS011;6861;46.170;7.222;2023-07-28T04:34:06;5.95;;;2.47;;
13580;SDS011;6861;46.170;7.222;2023-07-28T04:36:34;3.35;;;2.03;;
13580;SDS011;6861;46.170;7.222;2023-07-28T04:39:04;2.90;;;2.17;;
13580;SDS011;6861;46.170;7.222;2023-07-28T04:41:32;3.00;;;2.20;;
13580;SDS011;6861;46.170;7.222;2023-07-28T04:44:00;2.38;;;1.83;;
13580;SDS011;6861;46.170;7.222;2023-07-28T04:46:29;3.95;;;2.10;;
13580;SDS011;6861;46.170;7.222;2023-07-28T04:48:57;3.08;;;2.40;;
13580;SDS011;6861;46.170;7.222;2023-07-28T04:51:26;3.58;;;2.20;;
13580;SDS011;6861;46.170;7.222;2023-07-28T04:53:54;3.05;;;1.95;;
13580;SDS011;6861;46.170;7.222;2023-07-28T04:56:23;2.72;;;2.28;;
13580;SDS011;6861;46.170;7.222;2023-07-28T04:58:52;4.72;;;2.33;;
13580;SDS011;6861;46.170;7.222;2023-07-28T05:01:20;2.95;;;2.25;;
13580;SDS011;6861;46.170;7.222;2023-07-28T05:03:48;3.53;;;1.77;;
13580;SDS011;6861;46.170;7.222;2023-07-28T05:06:16;2.40;;;1.92;;
13580;SDS011;6861;46.170;7.222;2023-07-28T05:08:45;2.70;;;1.88;;
13580;SDS011;6861;46.170;7.222;2023-07-28T05:11:14;3.92;;;2.20;;
13580;SDS011;6861;46.170;7.222;2023-07-28T05:13:43;3.33;;;2.38;;
13580;SDS011;6861;46.170;7.222;2023-07-28T05:16:11;11.40;;;2.35;;
13580;SDS011;6861;46.170;7.222;2023-07-28T05:18:40;4.43;;;2.20;;
13580;SDS011;6861;46.170;7.222;2023-07-28T05:21:09;4.47;;;2.17;;
13580;SDS011;6861;46.170;7.222;2023-07-28T05:23:37;3.05;;;2.20;;
13580;SDS011;6861;46.170;7.222;2023-07-28T05:26:05;3.00;;;2.10;;
13580;SDS011;6861;46.170;7.222;2023-07-28T05:28:34;3.15;;;1.95;;
13580;SDS011;6861;46.170;7.222;2023-07-28T05:31:07;2.97;;;2.40;;
13580;SDS011;6861;46.170;7.222;2023-07-28T05:33:38;3.67;;;2.13;;
13580;SDS011;6861;46.170;7.222;2023-07-28T05:36:06;2.63;;;1.85;;
13580;SDS011;6861;46.170;7.222;2023-07-28T05:38:35;3.90;;;2.05;;
13580;SDS011;6861;46.170;7.222;2023-07-28T05:41:03;6.50;;;2.42;;
13580;SDS011;6861;46.170;7.222;2023-07-28T05:43:32;4.05;;;2.20;;
13580;SDS011;6861;46.170;7.222;2023-07-28T05:46:01;3.17;;;2.35;;
13580;SDS011;6861;46.170;7.222;2023-07-28T05:48:31;2.70;;;2.20;;
13580;SDS011;6861;46.170;7.222;2023-07-28T05:50:59;5.03;;;2.58;;
13580;SDS011;6861;46.170;7.222;2023-07-28T05:53:27;3.50;;;2.30;;
13580;SDS011;6861;46.170;7.222;2023-07-28T05:55:55;4.30;;;2.15;;
13580;SDS011;6861;46.170;7.222;2023-07-28T05:58:24;5.60;;;2.50;;
13580;SDS011;6861;46.170;7.222;2023-07-28T06:00:52;3.65;;;2.20;;
13580;SDS011;6861;46.170;7.222;2023-07-28T06:03:20;5.80;;;2.28;;
13580;SDS011;6861;46.170;7.222;2023-07-28T06:05:51;4.05;;;2.40;;
13580;SDS011;6861;46.170;7.222;2023-07-28T06:08:19;5.43;;;2.35;;
13580;SDS011;6861;46.170;7.222;2023-07-28T06:10:48;7.22;;;2.30;;
13580;SDS011;6861;46.170;7.222;2023-07-28T06:13:16;5.93;;;2.50;;
13580;SDS011;6861;46.170;7.222;2023-07-28T06:15:44;6.75;;;2.47;;
13580;SDS011;6861;46.170;7.222;2023-07-28T06:18:12;5.80;;;2.70;;
13580;SDS011;6861;46.170;7.222;2023-07-28T06:20:41;4.22;;;2.30;;
13580;SDS011;6861;46.170;7.222;2023-07-28T06:23:11;6.07;;;2.67;;
13580;SDS011;6861;46.170;7.222;2023-07-28T06:25:39;4.75;;;2.13;;
13580;SDS011;6861;46.170;7.222;2023-07-28T06:28:10;4.15;;;2.30;;
13580;SDS011;6861;46.170;7.222;2023-07-28T06:30:39;3.60;;;2.10;;
13580;SDS011;6861;46.170;7.222;2023-07-28T06:33:08;3.80;;;2.10;;
13580;SDS011;6861;46.170;7.222;2023-07-28T06:35:37;3.83;;;2.40;;
13580;SDS011;6861;46.170;7.222;2023-07-28T06:38:06;4.47;;;2.47;;
13580;SDS011;6861;46.170;7.222;2023-07-28T06:40:36;2.92;;;2.13;;
13580;SDS011;6861;46.170;7.222;2023-07-28T06:43:04;6.47;;;2.67;;
13580;SDS011;6861;46.170;7.222;2023-07-28T06:45:33;3.92;;;2.42;;
13580;SDS011;6861;46.170;7.222;2023-07-28T06:48:02;3.83;;;2.10;;
13580;SDS011;6861;46.170;7.222;2023-07-28T06:50:30;4.68;;;2.20;;
13580;SDS011;6861;46.170;7.222;2023-07-28T06:52:59;6.22;;;2.45;;
13580;SDS011;6861;46.170;7.222;2023-07-28T06:55:27;6.43;;;2.70;;
13580;SDS011;6861;46.170;7.222;2023-07-28T06:57:57;3.33;;;2.15;;
13580;SDS011;6861;46.170;7.222;2023-07-28T07:00:25;5.00;;;2.40;;
13580;SDS011;6861;46.170;7.222;2023-07-28T07:02:53;7.40;;;2.83;;
13580;SDS011;6861;46.170;7.222;2023-07-28T07:05:22;6.93;;;2.75;;
13580;SDS011;6861;46.170;7.222;2023-07-28T07:07:50;5.60;;;3.10;;
13580;SDS011;6861;46.170;7.222;2023-07-28T07:10:19;4.10;;;2.60;;
13580;SDS011;6861;46.170;7.222;2023-07-28T07:12:48;4.82;;;2.10;;
13580;SDS011;6861;46.170;7.222;2023-07-28T07:15:17;3.47;;;2.08;;
13580;SDS011;6861;46.170;7.222;2023-07-28T07:17:46;2.53;;;2.00;;
13580;SDS011;6861;46.170;7.222;2023-07-28T07:20:14;3.70;;;2.30;;
13580;SDS011;6861;46.170;7.222;2023-07-28T07:22:43;3.60;;;2.33;;
13580;SDS011;6861;46.170;7.222;2023-07-28T07:25:11;3.60;;;2.40;;
13580;SDS011;6861;46.170;7.222;2023-07-28T07:27:39;6.68;;;2.38;;
13580;SDS011;6861;46.170;7.222;2023-07-28T07:30:08;3.65;;;2.30;;
13580;SDS011;6861;46.170;7.222;2023-07-28T07:32:38;4.50;;;2.50;;
13580;SDS011;6861;46.170;7.222;2023-07-28T07:35:07;4.30;;;2.35;;
13580;SDS011;6861;46.170;7.222;2023-07-28T07:37:36;4.25;;;2.40;;
13580;SDS011;6861;46.170;7.222;2023-07-28T07:40:06;2.95;;;2.28;;
13580;SDS011;6861;46.170;7.222;2023-07-28T07:42:40;3.83;;;2.50;;
13580;SDS011;6861;46.170;7.222;2023-07-28T07:45:10;3.35;;;2.17;;
13580;SDS011;6861;46.170;7.222;2023-07-28T07:47:40;4.15;;;2.40;;
13580;SDS011;6861;46.170;7.222;2023-07-28T07:50:10;2.70;;;2.20;;
13580;SDS011;6861;46.170;7.222;2023-07-28T07:52:39;3.28;;;2.40;;
13580;SDS011;6861;46.170;7.222;2023-07-28T07:55:09;4.25;;;2.20;;
13580;SDS011;6861;46.170;7.222;2023-07-28T07:57:38;3.58;;;2.38;;
13580;SDS011;6861;46.170;7.222;2023-07-28T08:00:07;3.10;;;2.25;;
13580;SDS011;6861;46.170;7.222;2023-07-28T08:02:37;3.40;;;2.40;;
13580;SDS011;6861;46.170;7.222;2023-07-28T08:05:09;4.78;;;2.45;;
13580;SDS011;6861;46.170;7.222;2023-07-28T08:07:37;4.60;;;2.53;;
13580;SDS011;6861;46.170;7.222;2023-07-28T08:10:06;3.85;;;2.38;;
13580;SDS011;6861;46.170;7.222;2023-07-28T08:12:35;5.55;;;2.58;;
13580;SDS011;6861;46.170;7.222;2023-07-28T08:15:03;2.92;;;2.20;;
13580;SDS011;6861;46.170;7.222;2023-07-28T08:17:32;3.05;;;1.85;;
13580;SDS011;6861;46.170;7.222;2023-07-28T08:20:00;5.22;;;2.33;;
13580;SDS011;6861;46.170;7.222;2023-07-28T08:22:30;2.42;;;2.17;;
13580;SDS011;6861;46.170;7.222;2023-07-28T08:24:58;3.88;;;2.28;;
13580;SDS011;6861;46.170;7.222;2023-07-28T08:27:27;2.75;;;2.00;;
13580;SDS011;6861;46.170;7.222;2023-07-28T08:29:55;3.13;;;2.28;;
13580;SDS011;6861;46.170;7.222;2023-07-28T08:32:23;2.97;;;2.20;;
13580;SDS011;6861;46.170;7.222;2023-07-28T08:34:51;4.78;;;2.60;;
13580;SDS011;6861;46.170;7.222;2023-07-28T08:37:20;2.50;;;2.25;;
13580;SDS011;6861;46.170;7.222;2023-07-28T08:39:49;4.20;;;2.38;;
13580;SDS011;6861;46.170;7.222;2023-07-28T08:42:18;2.55;;;2.10;;
13580;SDS011;6861;46.170;7.222;2023-07-28T08:44:48;2.80;;;2.10;;
13580;SDS011;6861;46.170;7.222;2023-07-28T08:47:18;2.65;;;2.00;;
13580;SDS011;6861;46.170;7.222;2023-07-28T08:49:47;4.95;;;2.40;;
13580;SDS011;6861;46.170;7.222;2023-07-28T08:52:16;5.35;;;2.20;;
13580;SDS011;6861;46.170;7.222;2023-07-28T08:54:45;3.72;;;2.13;;
13580;SDS011;6861;46.170;7.222;2023-07-28T08:57:15;4.82;;;2.38;;
13580;SDS011;6861;46.170;7.222;2023-07-28T08:59:45;2.90;;;2.40;;
13580;SDS011;6861;46.170;7.222;2023-07-28T09:02:15;6.68;;;2.10;;
13580;SDS011;6861;46.170;7.222;2023-07-28T09:04:45;3.00;;;2.10;;
13580;SDS011;6861;46.170;7.222;2023-07-28T09:07:15;2.55;;;2.05;;
13580;SDS011;6861;46.170;7.222;2023-07-28T09:09:44;5.80;;;2.30;;
13580;SDS011;6861;46.170;7.222;2023-07-28T09:12:12;3.83;;;2.35;;
13580;SDS011;6861;46.170;7.222;2023-07-28T09:14:42;3.58;;;2.30;;
13580;SDS011;6861;46.170;7.222;2023-07-28T09:17:12;4.30;;;2.58;;
13580;SDS011;6861;46.170;7.222;2023-07-28T09:19:50;2.67;;;2.10;;
13580;SDS011;6861;46.170;7.222;2023-07-28T09:22:19;2.85;;;2.15;;
13580;SDS011;6861;46.170;7.222;2023-07-28T09:24:48;6.47;;;2.17;;
13580;SDS011;6861;46.170;7.222;2023-07-28T09:27:20;2.85;;;2.00;;
13580;SDS011;6861;46.170;7.222;2023-07-28T09:29:53;4.97;;;2.10;;
13580;SDS011;6861;46.170;7.222;2023-07-28T09:32:26;6.40;;;2.08;;
13580;SDS011;6861;46.170;7.222;2023-07-28T09:35:06;5.68;;;2.65;;
13580;SDS011;6861;46.170;7.222;2023-07-28T09:37:37;3.03;;;2.05;;
13580;SDS011;6861;46.170;7.222;2023-07-28T09:40:07;3.13;;;2.10;;
13580;SDS011;6861;46.170;7.222;2023-07-28T09:42:38;2.88;;;2.35;;
13580;SDS011;6861;46.170;7.222;2023-07-28T09:45:09;5.32;;;2.33;;
13580;SDS011;6861;46.170;7.222;2023-07-28T09:47:57;5.93;;;2.40;;
13580;SDS011;6861;46.170;7.222;2023-07-28T09:50:29;3.35;;;2.20;;
13580;SDS011;6861;46.170;7.222;2023-07-28T09:53:02;3.58;;;2.30;;
13580;SDS011;6861;46.170;7.222;2023-07-28T09:55:31;2.65;;;2.20;;
13580;SDS011;6861;46.170;7.222;2023-07-28T09:58:02;4.40;;;2.20;;
13580;SDS011;6861;46.170;7.222;2023-07-28T10:00:35;4.03;;;2.38;;
13580;SDS011;6861;46.170;7.222;2023-07-28T10:03:03;3.85;;;2.40;;
13580;SDS011;6861;46.170;7.222;2023-07-28T10:05:33;2.72;;;2.45;;
13580;SDS011;6861;46.170;7.222;2023-07-28T10:08:02;4.63;;;2.10;;
13580;SDS011;6861;46.170;7.222;2023-07-28T10:10:32;5.90;;;2.47;;
13580;SDS011;6861;46.170;7.222;2023-07-28T10:13:01;4.10;;;2.28;;
13580;SDS011;6861;46.170;7.222;2023-07-28T10:15:31;3.28;;;2.10;;
13580;SDS011;6861;46.170;7.222;2023-07-28T10:18:01;3.47;;;2.05;;
13580;SDS011;6861;46.170;7.222;2023-07-28T10:20:30;2.53;;;2.10;;
13580;SDS011;6861;46.170;7.222;2023-07-28T10:23:04;4.78;;;2.20;;
13580;SDS011;6861;46.170;7.222;2023-07-28T10:25:34;4.90;;;2.72;;
13580;SDS011;6861;46.170;7.222;2023-07-28T10:28:03;2.38;;;2.10;;
13580;SDS011;6861;46.170;7.222;2023-07-28T10:30:36;4.55;;;2.03;;
13580;SDS011;6861;46.170;7.222;2023-07-28T10:33:07;3.40;;;2.22;;
13580;SDS011;6861;46.170;7.222;2023-07-28T10:35:54;3.65;;;1.98;;
13580;SDS011;6861;46.170;7.222;2023-07-28T10:38:32;2.70;;;1.98;;
13580;SDS011;6861;46.170;7.222;2023-07-28T10:41:06;2.92;;;2.28;;
13580;SDS011;6861;46.170;7.222;2023-07-28T10:43:35;5.20;;;2.17;;
13580;SDS011;6861;46.170;7.222;2023-07-28T10:46:04;3.70;;;2.00;;
13580;SDS011;6861;46.170;7.222;2023-07-28T10:48:36;5.00;;;2.47;;
13580;SDS011;6861;46.170;7.222;2023-07-28T10:51:05;4.40;;;2.40;;
13580;SDS011;6861;46.170;7.222;2023-07-28T10:53:34;2.63;;;2.30;;
13580;SDS011;6861;46.170;7.222;2023-07-28T10:56:02;2.90;;;2.10;;
13580;SDS011;6861;46.170;7.222;2023-07-28T10:58:34;3.97;;;2.05;;
13580;SDS011;6861;46.170;7.222;2023-07-28T11:01:03;2.42;;;2.00;;
13580;SDS011;6861;46.170;7.222;2023-07-28T11:03:31;3.20;;;2.13;;
13580;SDS011;6861;46.170;7.222;2023-07-28T11:06:04;6.07;;;2.40;;
13580;SDS011;6861;46.170;7.222;2023-07-28T11:08:33;2.70;;;2.42;;
13580;SDS011;6861;46.170;7.222;2023-07-28T11:11:04;5.28;;;2.28;;
13580;SDS011;6861;46.170;7.222;2023-07-28T11:13:33;4.30;;;2.30;;
13580;SDS011;6861;46.170;7.222;2023-07-28T11:16:05;2.95;;;2.00;;
13580;SDS011;6861;46.170;7.222;2023-07-28T11:18:33;4.43;;;2.00;;
13580;SDS011;6861;46.170;7.222;2023-07-28T11:21:02;5.78;;;2.28;;
13580;SDS011;6861;46.170;7.222;2023-07-28T11:23:32;2.92;;;2.00;;
13580;SDS011;6861;46.170;7.222;2023-07-28T11:26:00;5.28;;;2.33;;
13580;SDS011;6861;46.170;7.222;2023-07-28T11:28:29;4.15;;;1.92;;
13580;SDS011;6861;46.170;7.222;2023-07-28T11:30:58;3.83;;;2.25;;
13580;SDS011;6861;46.170;7.222;2023-07-28T11:33:27;4.43;;;2.30;;
13580;SDS011;6861;46.170;7.222;2023-07-28T11:35:56;4.80;;;2.15;;
13580;SDS011;6861;46.170;7.222;2023-07-28T11:38:24;3.75;;;2.25;;
13580;SDS011;6861;46.170;7.222;2023-07-28T11:40:57;2.83;;;2.08;;
13580;SDS011;6861;46.170;7.222;2023-07-28T11:43:25;2.42;;;2.20;;
13580;SDS011;6861;46.170;7.222;2023-07-28T11:45:54;2.83;;;1.88;;
13580;SDS011;6861;46.170;7.222;2023-07-28T11:48:22;3.55;;;2.20;;
13580;SDS011;6861;46.170;7.222;2023-07-28T11:50:51;3.55;;;2.08;;
13580;SDS011;6861;46.170;7.222;2023-07-28T11:53:22;3.67;;;2.35;;
13580;SDS011;6861;46.170;7.222;2023-07-28T11:55:52;4.28;;;2.30;;
13580;SDS011;6861;46.170;7.222;2023-07-28T11:58:23;3.03;;;2.35;;
13580;SDS011;6861;46.170;7.222;2023-07-28T12:00:52;2.58;;;2.08;;
13580;SDS011;6861;46.170;7.222;2023-07-28T12:03:20;4.80;;;2.30;;
13580;SDS011;6861;46.170;7.222;2023-07-28T12:05:58;2.97;;;2.20;;
13580;SDS011;6861;46.170;7.222;2023-07-28T12:08:39;4.00;;;2.15;;
13580;SDS011;6861;46.170;7.222;2023-07-28T12:11:11;3.15;;;2.30;;
13580;SDS011;6861;46.170;7.222;2023-07-28T12:13:48;2.78;;;2.20;;
13580;SDS011;6861;46.170;7.222;2023-07-28T12:16:38;3.85;;;2.80;;
13580;SDS011;6861;46.170;7.222;2023-07-28T12:19:11;3.75;;;1.95;;
13580;SDS011;6861;46.170;7.222;2023-07-28T12:21:39;3.72;;;2.05;;
13580;SDS011;6861;46.170;7.222;2023-07-28T12:24:07;2.20;;;2.00;;
13580;SDS011;6861;46.170;7.222;2023-07-28T12:26:36;4.03;;;2.30;;
13580;SDS011;6861;46.170;7.222;2023-07-28T12:29:07;3.25;;;2.22;;
13580;SDS011;6861;46.170;7.222;2023-07-28T12:31:37;2.95;;;2.08;;
13580;SDS011;6861;46.170;7.222;2023-07-28T12:34:09;3.27;;;2.43;;
13580;SDS011;6861;46.170;7.222;2023-07-28T12:36:51;4.03;;;2.20;;
13580;SDS011;6861;46.170;7.222;2023-07-28T12:39:20;3.03;;;2.20;;
13580;SDS011;6861;46.170;7.222;2023-07-28T12:41:52;8.35;;;4.03;;
13580;SDS011;6861;46.170;7.222;2023-07-28T12:44:25;4.43;;;2.40;;
13580;SDS011;6861;46.170;7.222;2023-07-28T12:46:56;4.80;;;2.90;;
13580;SDS011;6861;46.170;7.222;2023-07-28T12:49:24;14.88;;;7.10;;
13580;SDS011;6861;46.170;7.222;2023-07-28T12:51:52;7.63;;;4.50;;
13580;SDS011;6861;46.170;7.222;2023-07-28T12:54:24;5.53;;;3.35;;
13580;SDS011;6861;46.170;7.222;2023-07-28T12:56:52;7.53;;;5.32;;
13580;SDS011;6861;46.170;7.222;2023-07-28T12:59:25;9.38;;;6.03;;
13580;SDS011;6861;46.170;7.222;2023-07-28T13:01:54;10.20;;;4.95;;
13580;SDS011;6861;46.170;7.222;2023-07-28T13:04:23;4.85;;;2.47;;
13580;SDS011;6861;46.170;7.222;2023-07-28T13:06:51;3.88;;;2.65;;
13580;SDS011;6861;46.170;7.222;2023-07-28T13:09:39;2.72;;;2.30;;
13580;SDS011;6861;46.170;7.222;2023-07-28T13:12:08;5.40;;;2.13;;
13580;SDS011;6861;46.170;7.222;2023-07-28T13:14:41;3.22;;;2.35;;
13580;SDS011;6861;46.170;7.222;2023-07-28T13:17:09;3.20;;;2.45;;
13580;SDS011;6861;46.170;7.222;2023-07-28T13:19:38;2.53;;;2.17;;
13580;SDS011;6861;46.170;7.222;2023-07-28T13:22:07;3.38;;;2.30;;
13580;SDS011;6861;46.170;7.222;2023-07-28T13:24:36;3.60;;;2.47;;
13580;SDS011;6861;46.170;7.222;2023-07-28T13:27:05;4.47;;;1.88;;
13580;SDS011;6861;46.170;7.222;2023-07-28T13:29:33;3.80;;;2.22;;
13580;SDS011;6861;46.170;7.222;2023-07-28T13:32:03;2.67;;;2.33;;
13580;SDS011;6861;46.170;7.222;2023-07-28T13:34:43;3.08;;;2.78;;
13580;SDS011;6861;46.170;7.222;2023-07-28T13:37:12;2.70;;;2.17;;
13580;SDS011;6861;46.170;7.222;2023-07-28T13:39:40;2.72;;;2.15;;
13580;SDS011;6861;46.170;7.222;2023-07-28T13:42:10;3.60;;;2.50;;
13580;SDS011;6861;46.170;7.222;2023-07-28T13:44:40;3.00;;;2.20;;
13580;SDS011;6861;46.170;7.222;2023-07-28T13:47:24;3.00;;;2.50;;
13580;SDS011;6861;46.170;7.222;2023-07-28T13:49:52;2.53;;;2.22;;
13580;SDS011;6861;46.170;7.222;2023-07-28T13:52:20;4.05;;;2.20;;
13580;SDS011;6861;46.170;7.222;2023-07-28T13:54:49;4.07;;;2.28;;
13580;SDS011;6861;46.170;7.222;2023-07-28T13:57:20;2.60;;;2.35;;
13580;SDS011;6861;46.170;7.222;2023-07-28T13:59:48;3.47;;;2.30;;
13580;SDS011;6861;46.170;7.222;2023-07-28T14:02:16;2.97;;;2.38;;
13580;SDS011;6861;46.170;7.222;2023-07-28T14:04:46;3.58;;;2.78;;
13580;SDS011;6861;46.170;7.222;2023-07-28T14:07:15;4.18;;;2.72;;
13580;SDS011;6861;46.170;7.222;2023-07-28T14:09:43;5.25;;;2.55;;
13580;SDS011;6861;46.170;7.222;2023-07-28T14:12:11;3.42;;;2.47;;
13580;SDS011;6861;46.170;7.222;2023-07-28T14:14:39;4.18;;;2.53;;
13580;SDS011;6861;46.170;7.222;2023-07-28T14:17:08;2.40;;;2.20;;
13580;SDS011;6861;46.170;7.222;2023-07-28T14:19:37;3.03;;;2.50;;
13580;SDS011;6861;46.170;7.222;2023-07-28T14:22:08;3.38;;;2.40;;
13580;SDS011;6861;46.170;7.222;2023-07-28T14:24:36;2.80;;;2.40;;
13580;SDS011;6861;46.170;7.222;2023-07-28T14:27:05;4.20;;;2.33;;
13580;SDS011;6861;46.170;7.222;2023-07-28T14:29:33;4.30;;;2.78;;
13580;SDS011;6861;46.170;7.222;2023-07-28T14:32:01;2.95;;;2.38;;
13580;SDS011;6861;46.170;7.222;2023-07-28T14:34:30;5.05;;;2.50;;
13580;SDS011;6861;46.170;7.222;2023-07-28T14:37:00;3.00;;;2.50;;
13580;SDS011;6861;46.170;7.222;2023-07-28T14:39:31;2.53;;;2.33;;
13580;SDS011;6861;46.170;7.222;2023-07-28T14:42:00;4.38;;;2.40;;
13580;SDS011;6861;46.170;7.222;2023-07-28T14:44:28;3.95;;;2.40;;
13580;SDS011;6861;46.170;7.222;2023-07-28T14:46:56;4.43;;;2.50;;
13580;SDS011;6861;46.170;7.222;2023-07-28T14:49:25;3.05;;;2.58;;
13580;SDS011;6861;46.170;7.222;2023-07-28T14:51:54;3.22;;;2.50;;
13580;SDS011;6861;46.170;7.222;2023-07-28T14:54:23;4.85;;;2.40;;
13580;SDS011;6861;46.170;7.222;2023-07-28T14:56:53;3.13;;;2.53;;
13580;SDS011;6861;46.170;7.222;2023-07-28T14:59:21;3.20;;;2.80;;
13580;SDS011;6861;46.170;7.222;2023-07-28T15:01:49;3.40;;;2.78;;
13580;SDS011;6861;46.170;7.222;2023-07-28T15:04:17;2.75;;;2.50;;
13580;SDS011;6861;46.170;7.222;2023-07-28T15:06:46;3.10;;;2.40;;
13580;SDS011;6861;46.170;7.222;2023-07-28T15:09:14;6.10;;;2.60;;
13580;SDS011;6861;46.170;7.222;2023-07-28T15:11:45;3.88;;;2.50;;
13580;SDS011;6861;46.170;7.222;2023-07-28T15:14:14;3.67;;;2.60;;